Weather reports worldwide

Advertisment
Reggio Calabria, Italy (16422): temperature & dewpoint: 08.11.2018 13:00:00 - 14.11.2018 13:00:00 (CET)Reggio Calabria, Italy (16422): wind speed: 08.11.2018 13:00:00 - 14.11.2018 13:00:00 (CET)Reggio Calabria, Italy (16422): wind direction: 08.11.2018 13:00:00 - 14.11.2018 13:00:00 (CET)Reggio Calabria, Italy (16422): visibility: 08.11.2018 13:00:00 - 14.11.2018 13:00:00 (CET)
Date & Time tt [°C] td [°C] ff [km/h] ff [kn] dd vv [km]
14.11.2018 13:00:00 - - - - - -
14.11.2018 12:00:00 20,0 13,0 24 13 NNW 10
14.11.2018 11:00:00 20,0 14,0 22 12 N 10
14.11.2018 10:00:00 20,0 14,0 22 12 NNW 10
14.11.2018 09:00:00 19,0 14,0 16 9 N 10
14.11.2018 08:00:00 16,0 9,0 9 5 NE 10
14.11.2018 07:00:00 12,0 8,0 11 6 NE 10
14.11.2018 06:00:00 14,0 9,0 11 6 NE 10
14.11.2018 05:00:00 - - - - - -
14.11.2018 04:00:00 - - - - - -
14.11.2018 03:00:00 - - - - - -
14.11.2018 02:00:00 - - - - - -
14.11.2018 01:00:00 - - - - - -
14.11.2018 00:00:00 13,0 6,0 9 5 NE 10
13.11.2018 23:00:00 13,0 6,0 9 5 NE 10
13.11.2018 22:00:00 14,0 6,0 11 6 NNE 10
13.11.2018 21:00:00 14,0 8,0 11 6 N 10
13.11.2018 20:00:00 16,0 10,0 11 6 N 10
13.11.2018 19:00:00 17,0 11,0 13 7 N 10
13.11.2018 18:00:00 18,0 13,0 16 9 N 10
13.11.2018 17:00:00 18,0 15,0 16 9 N 10
13.11.2018 16:00:00 20,0 15,0 22 12 N 10
13.11.2018 15:00:00 21,0 14,0 24 13 N 10
13.11.2018 14:00:00 22,0 14,0 22 12 N 10
13.11.2018 13:00:00 22,0 12,0 21 11 N 10
13.11.2018 12:00:00 22,0 15,0 18 10 N 10
13.11.2018 11:00:00 22,0 15,0 16 9 N 10
13.11.2018 10:00:00 21,0 15,0 18 10 N 10
13.11.2018 09:00:00 19,0 14,0 8 4 N 10
13.11.2018 08:00:00 16,0 10,0 11 6 NE 10
13.11.2018 07:00:00 14,0 10,0 11 6 NE 10
13.11.2018 06:00:00 14,0 10,0 8 4 NE 10
13.11.2018 05:00:00 - - - - - -
13.11.2018 04:00:00 - - - - - -
13.11.2018 03:00:00 - - - - - -
13.11.2018 02:00:00 - - - - - -
13.11.2018 01:00:00 - - - - - -
13.11.2018 00:00:00 15,0 12,0 9 5 ENE 10
12.11.2018 23:00:00 16,0 12,0 8 4 ENE 10
12.11.2018 22:00:00 15,0 12,0 8 4 ENE 10
12.11.2018 21:00:00 16,0 12,0 5 3 ENE 10
12.11.2018 20:00:00 15,0 12,0 0 0 N 10
12.11.2018 19:00:00 17,0 13,0 5 3 NE 10
12.11.2018 18:00:00 17,0 14,0 8 4 NE 10
12.11.2018 17:00:00 20,0 16,0 11 6 SSW 10
12.11.2018 16:00:00 21,0 15,0 9 5 SW 10
12.11.2018 15:00:00 22,0 15,0 15 8 SSW 10
12.11.2018 14:00:00 22,0 16,0 11 6 SSW 10
12.11.2018 13:00:00 22,0 16,0 13 7 SSW 10
12.11.2018 12:00:00 21,0 15,0 8 4 SW 10
12.11.2018 11:00:00 22,0 15,0 5 3 WSW 10
12.11.2018 10:00:00 22,0 14,0 4 2 - 10
12.11.2018 09:00:00 21,0 13,0 2 1 - 10
12.11.2018 08:00:00 17,0 12,0 2 1 - 10
12.11.2018 07:00:00 14,0 11,0 9 5 ENE 10
12.11.2018 06:00:00 14,0 11,0 11 6 NE 10
12.11.2018 05:00:00 - - - - - -
12.11.2018 04:00:00 - - - - - -
12.11.2018 03:00:00 - - - - - -
12.11.2018 02:00:00 - - - - - -
12.11.2018 01:00:00 - - - - - -
12.11.2018 00:00:00 14,0 11,0 9 5 ENE 10
11.11.2018 23:00:00 15,0 10,0 11 6 NE 10
11.11.2018 22:00:00 16,0 11,0 11 6 NE 10
11.11.2018 21:00:00 16,0 11,0 11 6 NE 10
11.11.2018 20:00:00 16,0 12,0 8 4 E 10
11.11.2018 19:00:00 18,0 14,0 2 1 - 10
11.11.2018 18:00:00 17,0 14,0 8 4 NE 10
11.11.2018 17:00:00 20,0 15,0 11 6 WSW 10
11.11.2018 16:00:00 20,0 13,0 11 6 WSW 10
11.11.2018 15:00:00 21,0 15,0 15 8 WSW 10
11.11.2018 14:00:00 21,0 13,0 16 9 WSW 10
11.11.2018 13:00:00 22,0 14,0 13 7 WSW 10
11.11.2018 12:00:00 22,0 13,0 9 5 SW 10
11.11.2018 11:00:00 21,0 14,0 9 5 SW 10
11.11.2018 10:00:00 21,0 13,0 5 3 SSW 10
11.11.2018 09:00:00 21,0 14,0 4 2 - 10
11.11.2018 08:00:00 17,0 13,0 9 5 NE 10
11.11.2018 07:00:00 15,0 12,0 9 5 NE 10
11.11.2018 06:00:00 15,0 12,0 8 4 NE 10
11.11.2018 05:00:00 - - - - - -
11.11.2018 04:00:00 - - - - - -
11.11.2018 03:00:00 - - - - - -
11.11.2018 02:00:00 - - - - - -
11.11.2018 01:00:00 - - - - - -
11.11.2018 00:00:00 16,0 12,0 8 4 ENE 10
10.11.2018 23:00:00 19,0 12,0 13 7 ESE 10
10.11.2018 22:00:00 19,0 12,0 8 4 S 10
10.11.2018 21:00:00 17,0 11,0 8 4 NNE 10
10.11.2018 20:00:00 18,0 12,0 5 3 N 10
10.11.2018 19:00:00 19,0 12,0 11 6 SSE 10
10.11.2018 18:00:00 19,0 12,0 9 5 S 10
10.11.2018 17:00:00 19,0 13,0 13 7 SE 10
10.11.2018 16:00:00 21,0 12,0 13 7 SSE 10
10.11.2018 15:00:00 20,0 14,0 18 10 S 10
10.11.2018 14:00:00 23,0 13,0 16 9 S 10
10.11.2018 13:00:00 22,0 12,0 16 9 S 10
10.11.2018 12:00:00 21,0 15,0 24 13 SSW 10
10.11.2018 11:00:00 20,0 15,0 26 14 SSW 10
10.11.2018 10:00:00 21,0 14,0 15 8 S 10
10.11.2018 09:00:00 20,0 14,0 9 5 S 10
10.11.2018 08:00:00 17,0 15,0 4 2 - 10
10.11.2018 07:00:00 13,0 11,0 4 2 E 10
10.11.2018 06:00:00 14,0 12,0 5 3 E 10
10.11.2018 05:00:00 - - - - - -
10.11.2018 04:00:00 - - - - - -
10.11.2018 03:00:00 - - - - - -
10.11.2018 02:00:00 - - - - - -
10.11.2018 01:00:00 - - - - - -
10.11.2018 00:00:00 15,0 11,0 8 4 ENE 10
09.11.2018 23:00:00 14,0 11,0 8 4 ENE 10
09.11.2018 22:00:00 15,0 12,0 5 3 NNW 10
09.11.2018 21:00:00 14,0 11,0 5 3 NNE 10
09.11.2018 20:00:00 13,0 11,0 5 3 NE 10
09.11.2018 19:00:00 14,0 11,0 5 3 NE 10
09.11.2018 18:00:00 16,0 12,0 8 4 SE 10
09.11.2018 17:00:00 18,0 14,0 16 9 SSW 10
09.11.2018 16:00:00 19,0 14,0 18 10 SSW 10
09.11.2018 15:00:00 20,0 14,0 18 10 SSW 10
09.11.2018 14:00:00 21,0 14,0 18 10 SSW 10
09.11.2018 13:00:00 21,0 14,0 22 12 SSW 10
09.11.2018 12:00:00 20,0 14,0 21 11 SW 10
09.11.2018 11:00:00 20,0 14,0 21 11 SW 10
09.11.2018 10:00:00 19,0 15,0 16 9 SW 10
09.11.2018 09:00:00 18,0 14,0 5 3 W 10
09.11.2018 08:00:00 15,0 11,0 8 4 NE 10
09.11.2018 07:00:00 12,0 9,0 11 6 NE 10
09.11.2018 06:00:00 12,0 9,0 11 6 NE 10
09.11.2018 05:00:00 - - - - - -
09.11.2018 04:00:00 - - - - - -
09.11.2018 03:00:00 - - - - - -
09.11.2018 02:00:00 - - - - - -
09.11.2018 01:00:00 - - - - - -
09.11.2018 00:00:00 13,0 9,0 9 5 ENE 10
08.11.2018 23:00:00 13,0 8,0 9 5 NE 10
08.11.2018 22:00:00 15,0 10,0 11 6 N 10
08.11.2018 21:00:00 15,0 10,0 13 7 NE 10
08.11.2018 20:00:00 15,0 11,0 11 6 NE 10
08.11.2018 19:00:00 16,0 11,0 9 5 NE 10
08.11.2018 18:00:00 16,0 12,0 9 5 NE 10
08.11.2018 17:00:00 18,0 12,0 18 10 N 10
08.11.2018 16:00:00 19,0 12,0 22 12 N 10
08.11.2018 15:00:00 20,0 13,0 24 13 N 10
08.11.2018 14:00:00 21,0 14,0 26 14 N 10
08.11.2018 13:00:00 21,0 14,0 26 14 N 10

tt = temperature
td = dewpoint
ff = wind speed
dd = wind direction
vv = visibility

Next stations